sensor_id;sensor_type;location;lat;lon;timestamp;temperature;humidity
8953;DHT22;4511;50.890;8.054;2023-11-19T00:02:18;8.50;99.90
8953;DHT22;4511;50.890;8.054;2023-11-19T00:04:47;8.50;99.90
8953;DHT22;4511;50.890;8.054;2023-11-19T00:07:14;8.50;99.90
8953;DHT22;4511;50.890;8.054;2023-11-19T00:09:41;8.50;99.90
8953;DHT22;4511;50.890;8.054;2023-11-19T00:12:09;8.50;99.90
8953;DHT22;4511;50.890;8.054;2023-11-19T00:14:36;8.60;99.90
8953;DHT22;4511;50.890;8.054;2023-11-19T00:17:03;8.50;99.90
8953;DHT22;4511;50.890;8.054;2023-11-19T00:19:30;8.60;99.90
8953;DHT22;4511;50.890;8.054;2023-11-19T00:21:58;8.60;99.90
8953;DHT22;4511;50.890;8.054;2023-11-19T00:24:28;8.60;99.90
8953;DHT22;4511;50.890;8.054;2023-11-19T00:26:56;8.70;99.90
8953;DHT22;4511;50.890;8.054;2023-11-19T00:29:23;8.60;99.90
8953;DHT22;4511;50.890;8.054;2023-11-19T00:31:50;8.70;99.90
8953;DHT22;4511;50.890;8.054;2023-11-19T00:34:17;8.70;99.90
8953;DHT22;4511;50.890;8.054;2023-11-19T00:36:47;8.70;99.90
8953;DHT22;4511;50.890;8.054;2023-11-19T00:39:15;8.70;99.90
8953;DHT22;4511;50.890;8.054;2023-11-19T00:41:43;8.70;99.90
8953;DHT22;4511;50.890;8.054;2023-11-19T00:44:11;8.70;99.90
8953;DHT22;4511;50.890;8.054;2023-11-19T00:46:38;8.70;99.90
8953;DHT22;4511;50.890;8.054;2023-11-19T00:49:05;8.80;99.90
8953;DHT22;4511;50.890;8.054;2023-11-19T00:51:31;8.70;99.90
8953;DHT22;4511;50.890;8.054;2023-11-19T00:53:58;8.80;99.90
8953;DHT22;4511;50.890;8.054;2023-11-19T00:56:27;8.80;99.90
8953;DHT22;4511;50.890;8.054;2023-11-19T00:58:54;8.80;99.90
8953;DHT22;4511;50.890;8.054;2023-11-19T01:01:21;8.80;99.90
8953;DHT22;4511;50.890;8.054;2023-11-19T01:03:48;8.90;99.90
8953;DHT22;4511;50.890;8.054;2023-11-19T01:06:15;8.80;99.90
8953;DHT22;4511;50.890;8.054;2023-11-19T01:08:52;8.90;99.90
8953;DHT22;4511;50.890;8.054;2023-11-19T01:11:20;8.90;99.90
8953;DHT22;4511;50.890;8.054;2023-11-19T01:13:49;8.90;99.90
8953;DHT22;4511;50.890;8.054;2023-11-19T01:16:15;9.00;99.90
8953;DHT22;4511;50.890;8.054;2023-11-19T01:18:42;9.00;99.90
8953;DHT22;4511;50.890;8.054;2023-11-19T01:21:09;9.00;99.90
8953;DHT22;4511;50.890;8.054;2023-11-19T01:23:36;9.10;99.90
8953;DHT22;4511;50.890;8.054;2023-11-19T01:26:03;9.10;99.90
8953;DHT22;4511;50.890;8.054;2023-11-19T01:28:31;9.10;99.90
8953;DHT22;4511;50.890;8.054;2023-11-19T01:30:59;9.20;99.90
8953;DHT22;4511;50.890;8.054;2023-11-19T01:33:25;9.20;99.90
8953;DHT22;4511;50.890;8.054;2023-11-19T01:35:53;9.20;99.90
8953;DHT22;4511;50.890;8.054;2023-11-19T01:38:20;9.20;99.90
8953;DHT22;4511;50.890;8.054;2023-11-19T01:40:47;9.20;99.90
8953;DHT22;4511;50.890;8.054;2023-11-19T01:43:32;9.20;99.90
8953;DHT22;4511;50.890;8.054;2023-11-19T01:46:01;9.30;99.90
8953;DHT22;4511;50.890;8.054;2023-11-19T01:48:28;9.30;99.90
8953;DHT22;4511;50.890;8.054;2023-11-19T01:50:55;9.30;99.90
8953;DHT22;4511;50.890;8.054;2023-11-19T01:53:23;9.30;99.90
8953;DHT22;4511;50.890;8.054;2023-11-19T01:55:51;9.40;99.90
8953;DHT22;4511;50.890;8.054;2023-11-19T01:58:18;9.40;99.90
8953;DHT22;4511;50.890;8.054;2023-11-19T02:00:45;9.30;99.90
8953;DHT22;4511;50.890;8.054;2023-11-19T02:03:14;9.40;99.90
8953;DHT22;4511;50.890;8.054;2023-11-19T02:05:41;9.40;99.90
8953;DHT22;4511;50.890;8.054;2023-11-19T02:08:09;9.30;99.90
8953;DHT22;4511;50.890;8.054;2023-11-19T02:10:36;9.30;99.90
8953;DHT22;4511;50.890;8.054;2023-11-19T02:13:02;9.40;99.90
8953;DHT22;4511;50.890;8.054;2023-11-19T02:15:31;9.40;99.90
8953;DHT22;4511;50.890;8.054;2023-11-19T02:18:19;9.40;99.90
8953;DHT22;4511;50.890;8.054;2023-11-19T02:20:47;9.40;99.90
8953;DHT22;4511;50.890;8.054;2023-11-19T02:23:14;9.50;99.90
8953;DHT22;4511;50.890;8.054;2023-11-19T02:25:41;9.50;99.90
8953;DHT22;4511;50.890;8.054;2023-11-19T02:28:10;9.50;99.90
8953;DHT22;4511;50.890;8.054;2023-11-19T02:30:38;9.50;99.90
8953;DHT22;4511;50.890;8.054;2023-11-19T02:33:04;9.60;99.90
8953;DHT22;4511;50.890;8.054;2023-11-19T02:35:32;9.60;99.90
8953;DHT22;4511;50.890;8.054;2023-11-19T02:37:59;9.60;99.90
8953;DHT22;4511;50.890;8.054;2023-11-19T02:40:26;9.60;99.90
8953;DHT22;4511;50.890;8.054;2023-11-19T02:42:53;9.60;99.90
8953;DHT22;4511;50.890;8.054;2023-11-19T02:45:22;9.60;99.90
8953;DHT22;4511;50.890;8.054;2023-11-19T02:47:49;9.70;99.90
8953;DHT22;4511;50.890;8.054;2023-11-19T02:50:17;9.70;99.90
8953;DHT22;4511;50.890;8.054;2023-11-19T02:52:51;9.70;99.90
8953;DHT22;4511;50.890;8.054;2023-11-19T02:55:18;9.70;99.90
8953;DHT22;4511;50.890;8.054;2023-11-19T02:57:46;9.80;99.90
8953;DHT22;4511;50.890;8.054;2023-11-19T03:00:15;9.80;99.90
8953;DHT22;4511;50.890;8.054;2023-11-19T03:02:43;9.80;99.90
8953;DHT22;4511;50.890;8.054;2023-11-19T03:05:12;9.80;99.90
8953;DHT22;4511;50.890;8.054;2023-11-19T03:07:40;9.80;99.90
8953;DHT22;4511;50.890;8.054;2023-11-19T03:10:08;9.90;99.90
8953;DHT22;4511;50.890;8.054;2023-11-19T03:12:38;9.90;99.90
8953;DHT22;4511;50.890;8.054;2023-11-19T03:15:06;9.90;99.90
8953;DHT22;4511;50.890;8.054;2023-11-19T03:17:35;10.00;99.90
8953;DHT22;4511;50.890;8.054;2023-11-19T03:20:05;9.90;99.90
8953;DHT22;4511;50.890;8.054;2023-11-19T03:22:32;10.00;99.90
8953;DHT22;4511;50.890;8.054;2023-11-19T03:25:00;10.00;99.90
8953;DHT22;4511;50.890;8.054;2023-11-19T03:27:27;10.00;99.90
8953;DHT22;4511;50.890;8.054;2023-11-19T03:29:53;10.00;99.90
8953;DHT22;4511;50.890;8.054;2023-11-19T03:32:20;10.00;99.90
8953;DHT22;4511;50.890;8.054;2023-11-19T03:34:47;10.00;99.90
8953;DHT22;4511;50.890;8.054;2023-11-19T03:37:15;10.00;99.90
8953;DHT22;4511;50.890;8.054;2023-11-19T03:39:42;10.00;99.90
8953;DHT22;4511;50.890;8.054;2023-11-19T03:42:09;10.00;99.90
8953;DHT22;4511;50.890;8.054;2023-11-19T03:44:37;10.00;99.90
8953;DHT22;4511;50.890;8.054;2023-11-19T03:47:04;10.00;99.90
8953;DHT22;4511;50.890;8.054;2023-11-19T03:49:31;10.00;99.90
8953;DHT22;4511;50.890;8.054;2023-11-19T03:51:58;10.00;99.90
8953;DHT22;4511;50.890;8.054;2023-11-19T03:54:26;10.10;99.90
8953;DHT22;4511;50.890;8.054;2023-11-19T03:56:53;10.00;99.90
8953;DHT22;4511;50.890;8.054;2023-11-19T03:59:19;10.00;99.90
8953;DHT22;4511;50.890;8.054;2023-11-19T04:01:46;10.10;99.90
8953;DHT22;4511;50.890;8.054;2023-11-19T04:04:12;10.10;99.90
8953;DHT22;4511;50.890;8.054;2023-11-19T04:06:39;10.00;99.90
8953;DHT22;4511;50.890;8.054;2023-11-19T04:09:06;10.10;99.90
8953;DHT22;4511;50.890;8.054;2023-11-19T04:11:35;10.10;99.90
8953;DHT22;4511;50.890;8.054;2023-11-19T04:14:02;10.10;99.90
8953;DHT22;4511;50.890;8.054;2023-11-19T04:16:29;10.10;99.90
8953;DHT22;4511;50.890;8.054;2023-11-19T04:18:56;10.10;99.90
8953;DHT22;4511;50.890;8.054;2023-11-19T04:21:22;10.10;99.90
8953;DHT22;4511;50.890;8.054;2023-11-19T04:23:49;10.10;99.90
8953;DHT22;4511;50.890;8.054;2023-11-19T04:26:16;10.10;99.90
8953;DHT22;4511;50.890;8.054;2023-11-19T04:28:44;10.10;99.90
8953;DHT22;4511;50.890;8.054;2023-11-19T04:31:11;10.10;99.90
8953;DHT22;4511;50.890;8.054;2023-11-19T04:33:37;10.20;99.90
8953;DHT22;4511;50.890;8.054;2023-11-19T04:36:05;10.10;99.90
8953;DHT22;4511;50.890;8.054;2023-11-19T04:38:32;10.10;99.90
8953;DHT22;4511;50.890;8.054;2023-11-19T04:41:00;10.10;99.90
8953;DHT22;4511;50.890;8.054;2023-11-19T04:43:27;10.10;99.90
8953;DHT22;4511;50.890;8.054;2023-11-19T04:45:55;10.10;99.90
8953;DHT22;4511;50.890;8.054;2023-11-19T04:48:23;10.10;99.90
8953;DHT22;4511;50.890;8.054;2023-11-19T04:50:50;10.10;99.90
8953;DHT22;4511;50.890;8.054;2023-11-19T04:53:18;10.10;99.90
8953;DHT22;4511;50.890;8.054;2023-11-19T04:55:44;10.20;99.90
8953;DHT22;4511;50.890;8.054;2023-11-19T04:58:11;10.20;99.90
8953;DHT22;4511;50.890;8.054;2023-11-19T05:00:38;10.20;99.90
8953;DHT22;4511;50.890;8.054;2023-11-19T05:03:06;10.20;99.90
8953;DHT22;4511;50.890;8.054;2023-11-19T05:05:33;10.20;99.90
8953;DHT22;4511;50.890;8.054;2023-11-19T05:08:00;10.20;99.90
8953;DHT22;4511;50.890;8.054;2023-11-19T05:10:27;10.30;99.90
8953;DHT22;4511;50.890;8.054;2023-11-19T05:12:53;10.20;99.90
8953;DHT22;4511;50.890;8.054;2023-11-19T05:15:21;10.20;99.90
8953;DHT22;4511;50.890;8.054;2023-11-19T05:17:48;10.30;99.90
8953;DHT22;4511;50.890;8.054;2023-11-19T05:20:16;10.30;99.90
8953;DHT22;4511;50.890;8.054;2023-11-19T05:22:43;10.30;99.90
8953;DHT22;4511;50.890;8.054;2023-11-19T05:25:11;10.20;99.90
8953;DHT22;4511;50.890;8.054;2023-11-19T05:27:38;10.20;99.90
8953;DHT22;4511;50.890;8.054;2023-11-19T05:30:07;10.30;99.90
8953;DHT22;4511;50.890;8.054;2023-11-19T05:32:35;10.30;99.90
8953;DHT22;4511;50.890;8.054;2023-11-19T05:35:03;10.30;99.90
8953;DHT22;4511;50.890;8.054;2023-11-19T05:37:31;10.30;99.90
8953;DHT22;4511;50.890;8.054;2023-11-19T05:39:58;10.30;99.90
8953;DHT22;4511;50.890;8.054;2023-11-19T05:42:25;10.30;99.90
8953;DHT22;4511;50.890;8.054;2023-11-19T05:44:52;10.30;99.90
8953;DHT22;4511;50.890;8.054;2023-11-19T05:47:19;10.30;99.90
8953;DHT22;4511;50.890;8.054;2023-11-19T05:49:46;10.30;99.90
8953;DHT22;4511;50.890;8.054;2023-11-19T05:52:13;10.30;99.90
8953;DHT22;4511;50.890;8.054;2023-11-19T05:54:41;10.30;99.90
8953;DHT22;4511;50.890;8.054;2023-11-19T05:57:07;10.30;99.90
8953;DHT22;4511;50.890;8.054;2023-11-19T05:59:35;10.30;99.90
8953;DHT22;4511;50.890;8.054;2023-11-19T06:02:02;10.30;99.90
8953;DHT22;4511;50.890;8.054;2023-11-19T06:04:29;10.30;99.90
8953;DHT22;4511;50.890;8.054;2023-11-19T06:06:55;10.30;99.90
8953;DHT22;4511;50.890;8.054;2023-11-19T06:09:22;10.40;99.90
8953;DHT22;4511;50.890;8.054;2023-11-19T06:11:51;10.30;99.90
8953;DHT22;4511;50.890;8.054;2023-11-19T06:14:18;10.40;99.90
8953;DHT22;4511;50.890;8.054;2023-11-19T06:16:44;10.40;99.90
8953;DHT22;4511;50.890;8.054;2023-11-19T06:19:10;10.40;99.90
8953;DHT22;4511;50.890;8.054;2023-11-19T06:21:37;10.40;99.90
8953;DHT22;4511;50.890;8.054;2023-11-19T06:24:04;10.40;99.90
8953;DHT22;4511;50.890;8.054;2023-11-19T06:26:31;10.40;99.90
8953;DHT22;4511;50.890;8.054;2023-11-19T06:28:59;10.40;99.90
8953;DHT22;4511;50.890;8.054;2023-11-19T06:31:26;10.40;99.90
8953;DHT22;4511;50.890;8.054;2023-11-19T06:33:53;10.40;99.90
8953;DHT22;4511;50.890;8.054;2023-11-19T06:36:19;10.40;99.90
8953;DHT22;4511;50.890;8.054;2023-11-19T06:38:47;10.40;99.90
8953;DHT22;4511;50.890;8.054;2023-11-19T06:41:13;10.30;99.90
8953;DHT22;4511;50.890;8.054;2023-11-19T06:43:40;10.40;99.90
8953;DHT22;4511;50.890;8.054;2023-11-19T06:46:16;10.30;99.90
8953;DHT22;4511;50.890;8.054;2023-11-19T06:48:43;10.40;99.90
8953;DHT22;4511;50.890;8.054;2023-11-19T06:51:10;10.30;99.90
8953;DHT22;4511;50.890;8.054;2023-11-19T06:53:37;10.30;99.90
8953;DHT22;4511;50.890;8.054;2023-11-19T06:56:05;10.30;99.90
8953;DHT22;4511;50.890;8.054;2023-11-19T06:58:36;10.30;99.90
8953;DHT22;4511;50.890;8.054;2023-11-19T07:01:06;10.30;99.90
8953;DHT22;4511;50.890;8.054;2023-11-19T07:03:35;10.30;99.90
8953;DHT22;4511;50.890;8.054;2023-11-19T07:06:01;10.30;99.90
8953;DHT22;4511;50.890;8.054;2023-11-19T07:08:30;10.30;99.90
8953;DHT22;4511;50.890;8.054;2023-11-19T07:10:57;10.30;99.90
8953;DHT22;4511;50.890;8.054;2023-11-19T07:13:24;10.30;99.90
8953;DHT22;4511;50.890;8.054;2023-11-19T07:15:53;10.30;99.90
8953;DHT22;4511;50.890;8.054;2023-11-19T07:18:20;10.40;99.90
8953;DHT22;4511;50.890;8.054;2023-11-19T07:20:48;10.40;99.90
8953;DHT22;4511;50.890;8.054;2023-11-19T07:23:15;10.40;99.90
8953;DHT22;4511;50.890;8.054;2023-11-19T07:25:42;10.40;99.90
8953;DHT22;4511;50.890;8.054;2023-11-19T07:28:10;10.40;99.90
8953;DHT22;4511;50.890;8.054;2023-11-19T07:30:38;10.30;99.90
8953;DHT22;4511;50.890;8.054;2023-11-19T07:33:05;10.30;99.90
8953;DHT22;4511;50.890;8.054;2023-11-19T07:35:32;10.30;99.90
8953;DHT22;4511;50.890;8.054;2023-11-19T07:38:00;10.30;99.90
8953;DHT22;4511;50.890;8.054;2023-11-19T07:40:26;10.40;99.90
8953;DHT22;4511;50.890;8.054;2023-11-19T07:42:54;10.40;99.90
8953;DHT22;4511;50.890;8.054;2023-11-19T07:45:20;10.40;99.90
8953;DHT22;4511;50.890;8.054;2023-11-19T07:47:47;10.30;99.90
8953;DHT22;4511;50.890;8.054;2023-11-19T07:50:14;10.30;99.90
8953;DHT22;4511;50.890;8.054;2023-11-19T07:52:42;10.20;99.90
8953;DHT22;4511;50.890;8.054;2023-11-19T07:55:10;10.20;99.90
8953;DHT22;4511;50.890;8.054;2023-11-19T07:57:37;10.20;99.90
8953;DHT22;4511;50.890;8.054;2023-11-19T08:00:05;10.20;99.90
8953;DHT22;4511;50.890;8.054;2023-11-19T08:02:32;10.20;99.90
8953;DHT22;4511;50.890;8.054;2023-11-19T08:04:59;10.20;99.90
8953;DHT22;4511;50.890;8.054;2023-11-19T08:07:26;10.20;99.90
8953;DHT22;4511;50.890;8.054;2023-11-19T08:09:53;10.30;99.90
8953;DHT22;4511;50.890;8.054;2023-11-19T08:12:21;10.30;99.90
8953;DHT22;4511;50.890;8.054;2023-11-19T08:14:47;10.40;99.90
8953;DHT22;4511;50.890;8.054;2023-11-19T08:17:15;10.40;99.90
8953;DHT22;4511;50.890;8.054;2023-11-19T08:19:42;10.50;99.90
8953;DHT22;4511;50.890;8.054;2023-11-19T08:22:09;10.50;99.90
8953;DHT22;4511;50.890;8.054;2023-11-19T08:24:36;10.60;99.90
8953;DHT22;4511;50.890;8.054;2023-11-19T08:27:03;10.50;99.90
8953;DHT22;4511;50.890;8.054;2023-11-19T08:29:34;10.50;99.90
8953;DHT22;4511;50.890;8.054;2023-11-19T08:32:01;10.50;99.90
8953;DHT22;4511;50.890;8.054;2023-11-19T08:34:29;10.50;99.90
8953;DHT22;4511;50.890;8.054;2023-11-19T08:36:56;10.40;99.90
8953;DHT22;4511;50.890;8.054;2023-11-19T08:39:22;10.40;99.90
8953;DHT22;4511;50.890;8.054;2023-11-19T08:41:49;10.40;99.90
8953;DHT22;4511;50.890;8.054;2023-11-19T08:44:16;10.50;99.90
8953;DHT22;4511;50.890;8.054;2023-11-19T08:46:49;10.60;20.80
8953;DHT22;4511;50.890;8.054;2023-11-19T08:49:16;10.60;1.00
8953;DHT22;4511;50.890;8.054;2023-11-19T08:51:43;10.60;22.60
8953;DHT22;4511;50.890;8.054;2023-11-19T08:54:10;10.60;14.30
8953;DHT22;4511;50.890;8.054;2023-11-19T08:56:38;10.50;1.00
8953;DHT22;4511;50.890;8.054;2023-11-19T08:59:05;10.50;1.00
8953;DHT22;4511;50.890;8.054;2023-11-19T09:01:31;10.50;1.00
8953;DHT22;4511;50.890;8.054;2023-11-19T09:03:59;10.50;4.30
8953;DHT22;4511;50.890;8.054;2023-11-19T09:06:26;10.60;1.00
8953;DHT22;4511;50.890;8.054;2023-11-19T09:08:53;10.50;1.00
8953;DHT22;4511;50.890;8.054;2023-11-19T09:11:23;10.50;15.80
8953;DHT22;4511;50.890;8.054;2023-11-19T09:13:50;10.50;44.40
8953;DHT22;4511;50.890;8.054;2023-11-19T09:16:17;10.50;30.30
8953;DHT22;4511;50.890;8.054;2023-11-19T09:18:44;10.50;58.60
8953;DHT22;4511;50.890;8.054;2023-11-19T09:21:12;10.50;66.40
8953;DHT22;4511;50.890;8.054;2023-11-19T09:23:39;10.60;56.40
8953;DHT22;4511;50.890;8.054;2023-11-19T09:26:08;10.60;30.40
8953;DHT22;4511;50.890;8.054;2023-11-19T09:28:35;10.60;14.10
8953;DHT22;4511;50.890;8.054;2023-11-19T09:31:02;10.70;20.70
8953;DHT22;4511;50.890;8.054;2023-11-19T09:33:30;10.80;5.70
8953;DHT22;4511;50.890;8.054;2023-11-19T09:35:56;10.80;1.00
8953;DHT22;4511;50.890;8.054;2023-11-19T09:38:25;10.90;1.00
8953;DHT22;4511;50.890;8.054;2023-11-19T09:40:52;11.00;1.00
8953;DHT22;4511;50.890;8.054;2023-11-19T09:43:19;11.10;1.00
8953;DHT22;4511;50.890;8.054;2023-11-19T09:45:48;11.20;1.00
8953;DHT22;4511;50.890;8.054;2023-11-19T09:48:17;11.10;99.90
8953;DHT22;4511;50.890;8.054;2023-11-19T09:50:45;11.10;1.00
8953;DHT22;4511;50.890;8.054;2023-11-19T09:53:13;11.20;1.00
8953;DHT22;4511;50.890;8.054;2023-11-19T09:55:42;11.10;1.00
8953;DHT22;4511;50.890;8.054;2023-11-19T09:58:10;11.10;1.00
8953;DHT22;4511;50.890;8.054;2023-11-19T10:00:38;11.10;1.00
8953;DHT22;4511;50.890;8.054;2023-11-19T10:03:07;11.20;1.00
8953;DHT22;4511;50.890;8.054;2023-11-19T10:05:36;11.30;1.00
8953;DHT22;4511;50.890;8.054;2023-11-19T10:08:04;11.40;99.90
8953;DHT22;4511;50.890;8.054;2023-11-19T10:10:31;11.40;99.90
8953;DHT22;4511;50.890;8.054;2023-11-19T10:12:59;11.50;1.00
8953;DHT22;4511;50.890;8.054;2023-11-19T10:15:26;11.70;99.90
8953;DHT22;4511;50.890;8.054;2023-11-19T10:17:55;11.80;1.00
8953;DHT22;4511;50.890;8.054;2023-11-19T10:20:22;11.80;1.00
8953;DHT22;4511;50.890;8.054;2023-11-19T10:22:52;11.70;1.00
8953;DHT22;4511;50.890;8.054;2023-11-19T10:25:23;11.60;99.90
8953;DHT22;4511;50.890;8.054;2023-11-19T10:27:50;11.50;99.90
8953;DHT22;4511;50.890;8.054;2023-11-19T10:30:20;11.60;99.90
8953;DHT22;4511;50.890;8.054;2023-11-19T10:33:03;11.50;99.90
8953;DHT22;4511;50.890;8.054;2023-11-19T10:35:30;11.40;99.90
8953;DHT22;4511;50.890;8.054;2023-11-19T10:37:59;11.40;1.00
8953;DHT22;4511;50.890;8.054;2023-11-19T10:40:37;11.30;99.90
8953;DHT22;4511;50.890;8.054;2023-11-19T10:43:05;11.40;99.90
8953;DHT22;4511;50.890;8.054;2023-11-19T10:45:34;11.40;1.00
8953;DHT22;4511;50.890;8.054;2023-11-19T10:48:00;11.70;1.00
8953;DHT22;4511;50.890;8.054;2023-11-19T10:50:28;11.80;1.00
8953;DHT22;4511;50.890;8.054;2023-11-19T10:52:56;11.90;99.90
8953;DHT22;4511;50.890;8.054;2023-11-19T10:55:27;11.90;1.00
8953;DHT22;4511;50.890;8.054;2023-11-19T10:57:58;11.90;1.00
8953;DHT22;4511;50.890;8.054;2023-11-19T11:00:25;11.90;99.90
8953;DHT22;4511;50.890;8.054;2023-11-19T11:02:59;11.90;1.00
8953;DHT22;4511;50.890;8.054;2023-11-19T11:05:26;11.90;99.90
8953;DHT22;4511;50.890;8.054;2023-11-19T11:07:55;11.80;1.00
8953;DHT22;4511;50.890;8.054;2023-11-19T11:10:25;11.70;1.00
8953;DHT22;4511;50.890;8.054;2023-11-19T11:12:52;11.60;99.90
8953;DHT22;4511;50.890;8.054;2023-11-19T11:15:25;11.70;1.00
8953;DHT22;4511;50.890;8.054;2023-11-19T11:17:56;11.70;1.00
8953;DHT22;4511;50.890;8.054;2023-11-19T11:20:24;11.70;99.90
8953;DHT22;4511;50.890;8.054;2023-11-19T11:23:01;11.70;1.00
8953;DHT22;4511;50.890;8.054;2023-11-19T11:25:38;11.80;99.90
8953;DHT22;4511;50.890;8.054;2023-11-19T11:28:24;12.10;1.00
8953;DHT22;4511;50.890;8.054;2023-11-19T11:31:08;12.20;1.00
8953;DHT22;4511;50.890;8.054;2023-11-19T11:33:48;12.20;99.90
8953;DHT22;4511;50.890;8.054;2023-11-19T11:36:22;12.10;99.90
8953;DHT22;4511;50.890;8.054;2023-11-19T11:38:50;12.00;11.70
8953;DHT22;4511;50.890;8.054;2023-11-19T11:41:18;11.90;99.90
8953;DHT22;4511;50.890;8.054;2023-11-19T11:43:46;11.80;1.00
8953;DHT22;4511;50.890;8.054;2023-11-19T11:49:25;11.70;99.90
8953;DHT22;4511;50.890;8.054;2023-11-19T11:52:01;11.70;99.90
8953;DHT22;4511;50.890;8.054;2023-11-19T11:54:29;11.60;99.90
8953;DHT22;4511;50.890;8.054;2023-11-19T11:57:03;11.60;99.90
8953;DHT22;4511;50.890;8.054;2023-11-19T11:59:46;11.70;99.90
8953;DHT22;4511;50.890;8.054;2023-11-19T12:02:15;11.70;83.90
8953;DHT22;4511;50.890;8.054;2023-11-19T12:04:46;11.70;99.90
8953;DHT22;4511;50.890;8.054;2023-11-19T12:07:16;11.60;1.00
8953;DHT22;4511;50.890;8.054;2023-11-19T12:09:48;11.60;1.00
8953;DHT22;4511;50.890;8.054;2023-11-19T12:12:21;11.50;99.90
8953;DHT22;4511;50.890;8.054;2023-11-19T12:15:01;11.50;99.90
8953;DHT22;4511;50.890;8.054;2023-11-19T12:17:46;11.70;99.90
8953;DHT22;4511;50.890;8.054;2023-11-19T12:20:16;11.60;1.00
8953;DHT22;4511;50.890;8.054;2023-11-19T12:22:44;11.60;1.00
8953;DHT22;4511;50.890;8.054;2023-11-19T12:25:12;11.70;60.40
8953;DHT22;4511;50.890;8.054;2023-11-19T12:27:40;11.90;1.00
8953;DHT22;4511;50.890;8.054;2023-11-19T12:30:08;11.90;1.00
8953;DHT22;4511;50.890;8.054;2023-11-19T12:32:39;11.90;99.90
8953;DHT22;4511;50.890;8.054;2023-11-19T12:35:07;11.80;1.00
8953;DHT22;4511;50.890;8.054;2023-11-19T12:37:43;11.70;1.00
8953;DHT22;4511;50.890;8.054;2023-11-19T12:40:18;11.60;1.00
8953;DHT22;4511;50.890;8.054;2023-11-19T12:42:45;11.60;1.00
8953;DHT22;4511;50.890;8.054;2023-11-19T12:45:11;11.90;1.00
8953;DHT22;4511;50.890;8.054;2023-11-19T12:47:39;12.20;1.00
8953;DHT22;4511;50.890;8.054;2023-11-19T12:50:07;12.10;99.90
8953;DHT22;4511;50.890;8.054;2023-11-19T12:52:34;11.80;99.90
8953;DHT22;4511;50.890;8.054;2023-11-19T12:55:03;11.60;99.90
8953;DHT22;4511;50.890;8.054;2023-11-19T12:57:36;11.60;1.00
8953;DHT22;4511;50.890;8.054;2023-11-19T13:00:04;11.60;99.90
8953;DHT22;4511;50.890;8.054;2023-11-19T13:02:47;11.70;1.00
8953;DHT22;4511;50.890;8.054;2023-11-19T13:05:24;11.80;1.00
8953;DHT22;4511;50.890;8.054;2023-11-19T13:07:57;12.00;1.00
8953;DHT22;4511;50.890;8.054;2023-11-19T13:10:25;11.90;99.90
8953;DHT22;4511;50.890;8.054;2023-11-19T13:13:03;11.80;1.00
8953;DHT22;4511;50.890;8.054;2023-11-19T13:15:30;11.80;99.90
8953;DHT22;4511;50.890;8.054;2023-11-19T13:17:57;11.80;1.00
8953;DHT22;4511;50.890;8.054;2023-11-19T13:20:24;11.70;1.00
8953;DHT22;4511;50.890;8.054;2023-11-19T13:22:58;11.60;99.90
8953;DHT22;4511;50.890;8.054;2023-11-19T13:25:26;11.60;99.90
8953;DHT22;4511;50.890;8.054;2023-11-19T13:27:54;11.60;99.90
8953;DHT22;4511;50.890;8.054;2023-11-19T13:30:21;11.60;1.00
8953;DHT22;4511;50.890;8.054;2023-11-19T13:32:49;11.60;1.00
8953;DHT22;4511;50.890;8.054;2023-11-19T13:35:15;11.70;99.90
8953;DHT22;4511;50.890;8.054;2023-11-19T13:37:42;11.70;1.00
8953;DHT22;4511;50.890;8.054;2023-11-19T13:40:10;11.60;54.20
8953;DHT22;4511;50.890;8.054;2023-11-19T13:42:41;11.50;1.00
8953;DHT22;4511;50.890;8.054;2023-11-19T13:45:08;11.40;1.00
8953;DHT22;4511;50.890;8.054;2023-11-19T13:47:37;11.50;91.80
8953;DHT22;4511;50.890;8.054;2023-11-19T13:50:07;11.40;99.90
8953;DHT22;4511;50.890;8.054;2023-11-19T13:52:35;11.30;1.00
8953;DHT22;4511;50.890;8.054;2023-11-19T13:55:02;11.30;20.10
8953;DHT22;4511;50.890;8.054;2023-11-19T13:57:30;11.20;29.90
8953;DHT22;4511;50.890;8.054;2023-11-19T13:59:58;11.20;61.70
8953;DHT22;4511;50.890;8.054;2023-11-19T14:02:25;11.20;1.00
8953;DHT22;4511;50.890;8.054;2023-11-19T14:04:52;11.20;1.00
8953;DHT22;4511;50.890;8.054;2023-11-19T14:07:18;11.20;99.90
8953;DHT22;4511;50.890;8.054;2023-11-19T14:09:45;11.10;99.90
8953;DHT22;4511;50.890;8.054;2023-11-19T14:12:12;11.10;99.90
8953;DHT22;4511;50.890;8.054;2023-11-19T14:14:39;11.10;99.90
8953;DHT22;4511;50.890;8.054;2023-11-19T14:17:08;11.00;99.90
8953;DHT22;4511;50.890;8.054;2023-11-19T14:19:36;10.90;99.90
8953;DHT22;4511;50.890;8.054;2023-11-19T14:22:03;11.00;1.00
8953;DHT22;4511;50.890;8.054;2023-11-19T14:24:30;11.10;1.00
8953;DHT22;4511;50.890;8.054;2023-11-19T14:26:57;11.10;1.00
8953;DHT22;4511;50.890;8.054;2023-11-19T14:29:24;11.20;1.00
8953;DHT22;4511;50.890;8.054;2023-11-19T14:31:52;11.20;1.00
8953;DHT22;4511;50.890;8.054;2023-11-19T14:34:21;11.30;99.90
8953;DHT22;4511;50.890;8.054;2023-11-19T14:36:47;11.20;99.90
8953;DHT22;4511;50.890;8.054;2023-11-19T14:39:15;11.20;99.90
8953;DHT22;4511;50.890;8.054;2023-11-19T14:41:42;11.10;99.90
8953;DHT22;4511;50.890;8.054;2023-11-19T14:44:09;11.00;99.90
8953;DHT22;4511;50.890;8.054;2023-11-19T14:46:36;10.90;1.00
8953;DHT22;4511;50.890;8.054;2023-11-19T14:49:04;11.00;1.00
8953;DHT22;4511;50.890;8.054;2023-11-19T14:51:32;11.00;1.00
8953;DHT22;4511;50.890;8.054;2023-11-19T14:54:01;10.90;1.00
8953;DHT22;4511;50.890;8.054;2023-11-19T14:56:28;10.90;99.90
8953;DHT22;4511;50.890;8.054;2023-11-19T14:58:55;10.90;1.00
8953;DHT22;4511;50.890;8.054;2023-11-19T15:01:23;10.90;1.00
8953;DHT22;4511;50.890;8.054;2023-11-19T15:03:50;10.90;1.00
8953;DHT22;4511;50.890;8.054;2023-11-19T15:06:17;10.90;1.00
8953;DHT22;4511;50.890;8.054;2023-11-19T15:08:46;10.90;1.00
8953;DHT22;4511;50.890;8.054;2023-11-19T15:11:13;10.80;1.00
8953;DHT22;4511;50.890;8.054;2023-11-19T15:13:39;10.80;99.90
8953;DHT22;4511;50.890;8.054;2023-11-19T15:16:08;10.80;99.90
8953;DHT22;4511;50.890;8.054;2023-11-19T15:18:36;10.80;99.90
8953;DHT22;4511;50.890;8.054;2023-11-19T15:21:03;10.80;1.00
8953;DHT22;4511;50.890;8.054;2023-11-19T15:23:30;10.70;1.00
8953;DHT22;4511;50.890;8.054;2023-11-19T15:25:58;10.70;1.00
8953;DHT22;4511;50.890;8.054;2023-11-19T15:28:27;10.70;1.00
8953;DHT22;4511;50.890;8.054;2023-11-19T15:30:53;10.70;1.00
8953;DHT22;4511;50.890;8.054;2023-11-19T15:33:20;10.70;1.00
8953;DHT22;4511;50.890;8.054;2023-11-19T15:35:47;10.60;1.00
8953;DHT22;4511;50.890;8.054;2023-11-19T15:38:14;10.60;1.00
8953;DHT22;4511;50.890;8.054;2023-11-19T15:40:41;10.60;1.00
8953;DHT22;4511;50.890;8.054;2023-11-19T15:43:10;10.70;1.00
8953;DHT22;4511;50.890;8.054;2023-11-19T15:45:36;10.60;1.00
8953;DHT22;4511;50.890;8.054;2023-11-19T15:48:05;10.60;1.00
8953;DHT22;4511;50.890;8.054;2023-11-19T15:50:32;10.60;1.00
8953;DHT22;4511;50.890;8.054;2023-11-19T15:52:59;10.60;99.90
8953;DHT22;4511;50.890;8.054;2023-11-19T15:55:27;10.60;99.90
8953;DHT22;4511;50.890;8.054;2023-11-19T15:57:53;10.60;99.90
8953;DHT22;4511;50.890;8.054;2023-11-19T16:00:21;10.60;1.00
8953;DHT22;4511;50.890;8.054;2023-11-19T16:02:48;10.60;1.00
8953;DHT22;4511;50.890;8.054;2023-11-19T16:05:15;10.60;1.00
8953;DHT22;4511;50.890;8.054;2023-11-19T16:07:42;10.50;1.00
8953;DHT22;4511;50.890;8.054;2023-11-19T16:10:09;10.50;1.00
8953;DHT22;4511;50.890;8.054;2023-11-19T16:12:38;10.50;1.00
8953;DHT22;4511;50.890;8.054;2023-11-19T16:15:06;10.50;1.00
8953;DHT22;4511;50.890;8.054;2023-11-19T16:17:35;10.50;1.00
8953;DHT22;4511;50.890;8.054;2023-11-19T16:20:04;10.60;99.90